Hampton, KY (42047)

9:08 PM CDT on September 02, 2014 (GMT -0500)
Marion-Critt Cnty AP, Marion, | Change Station
CLOSE
Current Station
Airport
Location: Marion-Critt Cnty AP, Marion,,
Elevation: 650 ft
Nearby Weather Stations

Elev 650 ft 37.34 °N, 88.11 °W | Updated 13 minutes ago

Clear
Clear
73 °F
Feels Like 73 °F
N
0
Wind Variable Wind from North

Today
High -- | Low -- °F
--% Chance of Precip.
Yesterday
High -- | Low -- °F
Precip. -- in
6:24 AM 7:20 PM
First Quarter, 57% visible
Pressure 29.99 in
Visibility 10.0 miles
Clouds Clear
Dew Point 69 °F
Humidity 87%
Rainfall 0.00 in
Snow Depth Not available.
UV 0 out of 12
Pollen 8.70 out of 12
Air Quality Not available.
Flu Activity Not available.
METAR K5M9 030155Z AUTO 00000KT 10SM CLR 23/21 A2999 RMK AO2 T02290206

More Conditions Fewer Conditions

Pressure 29.99 in
Visibility 10.0 miles
Clouds Clear
Dew Point 69 °F
Humidity 87%
Rainfall 0.00 in
Snow Depth Not available.
UV 0 out of 12
Pollen 8.70 out of 12
Air Quality Not available.
Flu Activity Not available.
METAR K5M9 030155Z AUTO 00000KT 10SM CLR 23/21 A2999 RMK AO2 T02290206

More Conditions Fewer Conditions

10-Day Weather Forecast

Almanac

Astronomy

Sep. 02, 2014 Rise Set
Actual Time 6:24 AM CDT 7:20 PM CDT
Civil Twilight 5:58 AM CDT 7:47 PM CDT
Nautical Twilight 5:26 AM CDT 8:19 PM CDT
Astronomical Twilight 4:53 AM CDT 8:51 PM CDT
Moon 1:59 PM CDT (9/2) No Moon Set
Length of Visible Light 13h 49m
Length of Day
12h 55m
Tomorrow will be 2m 18s shorter.
First Quarter, 57% of the Moon is Illuminated
Today
First Quarter
Sep 8
Full
Sep 15
Last Quarter
Sep 24
New
Oct 1
First Quarter

Today's Extremes

State Highs State Lows

Community

WunderPhotos

Upload Photos

1,749,837 photos uploaded!

Nearby

Snow Depth

Station Depth Elevation
No new snow has been reported.

Earthquake Activity

City Distance Mag. Time & Date
Tiptonville, Tennessee 89 miles 2.9 11:19 PM CDT
2014-08-31
Minimum magnitude displayed is 2.5.

Coastal Water Temperatures

Place Temperature
No Stations Reporting

Nearby Weather Stations